Elk City, Idaho
Current Conditions -  °F | °C
As of 12:15 AM on Tuesday 21 Oct 2014 (Local Time) from KGIC Reporting Station
Overcast Overcast  
Wind Chill: 45°   Ceiling: 3700
Heat Index: 49°   Visibility: 10mi
Dew Point: 40°   Wind: 9mph
Humidity: 71%   Direction: 360°N
Pressure: 29.91"   Gusts: NA
Location:  45.83°N, 115.44°W
Report Text: KGIC 210715Z AUTO 36008KT 10SM OVC037 09/04 A2991 RMK AO1 T00940044
Loading
Personal Weather Stations






























Interactive Weather Map New forecast layout! Learn more

10-Day Weather Forecast

Advertisements
Track Severe Weather on mobile